Cururupu, Brazil
Current Conditions -  °F | °C
As of 4:00 PM on Saturday 20 Dec 2014 (Local Time) from SBSL Reporting Station
Few Clouds Few Clouds  
Wind Chill: 90°   Ceiling: Unl
Heat Index: 93°   Visibility: 6mi
Dew Point: 68°   Wind: 23mph
Humidity: 49%   Direction: 60°ENE
Pressure: 29.8"   Gusts: NA
Location:  1.83°S, 44.87°W
Report Text: SBSL 201900Z 06020KT 9999 FEW020 32/20 Q1009
Loading
Personal Weather Stations






























Interactive Weather Map New forecast layout! Learn more

10-Day Weather Forecast

Advertisements
Track Severe Weather on mobile